sensor_id;sensor_type;location;lat;lon;timestamp;pressure;altitude;pressure_sealevel;temperature;humidity
13604;BME280;24578;48.264;11.436;2023-04-23T00:02:47;95569.63;;;13.30;100.00
13604;BME280;24578;48.264;11.436;2023-04-23T00:06:10;95566.88;;;13.31;100.00
13604;BME280;24578;48.264;11.436;2023-04-23T00:09:32;95566.22;;;13.29;100.00
13604;BME280;24578;48.264;11.436;2023-04-23T00:12:55;95577.16;;;13.23;100.00
13604;BME280;24578;48.264;11.436;2023-04-23T00:16:19;95563.41;;;13.13;100.00
13604;BME280;24578;48.264;11.436;2023-04-23T00:19:41;95561.84;;;13.20;100.00
13604;BME280;24578;48.264;11.436;2023-04-23T00:23:03;95566.25;;;13.19;100.00
13604;BME280;24578;48.264;11.436;2023-04-23T00:26:24;95562.00;;;13.18;100.00
13604;BME280;24578;48.264;11.436;2023-04-23T00:29:46;95551.38;;;13.12;100.00
13604;BME280;24578;48.264;11.436;2023-04-23T00:33:08;95554.78;;;13.12;100.00
13604;BME280;24578;48.264;11.436;2023-04-23T00:36:30;95552.72;;;13.16;100.00
13604;BME280;24578;48.264;11.436;2023-04-23T00:39:52;95552.72;;;13.16;100.00
13604;BME280;24578;48.264;11.436;2023-04-23T00:43:14;95551.63;;;13.18;100.00
13604;BME280;24578;48.264;11.436;2023-04-23T00:46:36;95544.78;;;13.17;100.00
13604;BME280;24578;48.264;11.436;2023-04-23T00:49:58;95535.06;;;13.19;100.00
13604;BME280;24578;48.264;11.436;2023-04-23T00:53:20;95544.09;;;13.15;100.00
13604;BME280;24578;48.264;11.436;2023-04-23T00:56:42;95542.22;;;13.07;100.00
13604;BME280;24578;48.264;11.436;2023-04-23T01:00:06;95526.91;;;13.04;100.00
13604;BME280;24578;48.264;11.436;2023-04-23T01:03:28;95535.94;;;13.00;100.00
13604;BME280;24578;48.264;11.436;2023-04-23T01:06:50;95538.44;;;13.02;100.00
13604;BME280;24578;48.264;11.436;2023-04-23T01:10:12;95530.63;;;13.02;100.00
13604;BME280;24578;48.264;11.436;2023-04-23T01:13:34;95515.16;;;13.00;100.00
13604;BME280;24578;48.264;11.436;2023-04-23T01:16:56;95523.63;;;13.02;100.00
13604;BME280;24578;48.264;11.436;2023-04-23T01:20:19;95529.28;;;12.98;100.00
13604;BME280;24578;48.264;11.436;2023-04-23T01:23:41;95523.31;;;12.87;100.00
13604;BME280;24578;48.264;11.436;2023-04-23T01:27:03;95522.63;;;12.85;100.00
13604;BME280;24578;48.264;11.436;2023-04-23T01:30:26;95524.94;;;12.88;100.00
13604;BME280;24578;48.264;11.436;2023-04-23T01:33:50;95536.31;;;12.77;100.00
13604;BME280;24578;48.264;11.436;2023-04-23T01:37:14;95535.63;;;12.75;100.00
13604;BME280;24578;48.264;11.436;2023-04-23T01:40:37;95532.63;;;12.70;100.00
13604;BME280;24578;48.264;11.436;2023-04-23T01:43:59;95538.25;;;12.66;100.00
13604;BME280;24578;48.264;11.436;2023-04-23T01:47:21;95536.78;;;12.63;100.00
13604;BME280;24578;48.264;11.436;2023-04-23T01:50:43;95528.06;;;12.44;100.00
13604;BME280;24578;48.264;11.436;2023-04-23T01:54:04;95527.22;;;12.54;100.00
13604;BME280;24578;48.264;11.436;2023-04-23T01:57:26;95529.53;;;12.57;100.00
13604;BME280;24578;48.264;11.436;2023-04-23T02:00:49;95531.34;;;12.46;100.00
13604;BME280;24578;48.264;11.436;2023-04-23T02:04:12;95537.38;;;12.37;100.00
13604;BME280;24578;48.264;11.436;2023-04-23T02:07:34;95540.63;;;12.39;100.00
13604;BME280;24578;48.264;11.436;2023-04-23T02:10:57;95549.38;;;12.38;100.00
13604;BME280;24578;48.264;11.436;2023-04-23T02:14:19;95550.75;;;12.23;100.00
13604;BME280;24578;48.264;11.436;2023-04-23T02:17:41;95534.66;;;12.19;100.00
13604;BME280;24578;48.264;11.436;2023-04-23T02:21:03;95534.13;;;12.25;100.00
13604;BME280;24578;48.264;11.436;2023-04-23T02:24:25;95543.13;;;12.31;100.00
13604;BME280;24578;48.264;11.436;2023-04-23T02:27:47;95545.59;;;12.13;100.00
13604;BME280;24578;48.264;11.436;2023-04-23T02:31:09;95542.84;;;12.05;100.00
13604;BME280;24578;48.264;11.436;2023-04-23T02:34:31;95546.94;;;12.07;100.00
13604;BME280;24578;48.264;11.436;2023-04-23T02:37:53;95547.25;;;12.04;100.00
13604;BME280;24578;48.264;11.436;2023-04-23T02:41:15;95557.44;;;11.96;100.00
13604;BME280;24578;48.264;11.436;2023-04-23T02:44:36;95553.19;;;11.95;100.00
13604;BME280;24578;48.264;11.436;2023-04-23T02:47:58;95548.69;;;11.87;100.00
13604;BME280;24578;48.264;11.436;2023-04-23T02:51:20;95561.91;;;11.84;100.00
13604;BME280;24578;48.264;11.436;2023-04-23T02:54:42;95561.63;;;11.77;100.00
13604;BME280;24578;48.264;11.436;2023-04-23T02:58:03;95548.13;;;11.64;100.00
13604;BME280;24578;48.264;11.436;2023-04-23T03:01:25;95564.63;;;11.63;100.00
13604;BME280;24578;48.264;11.436;2023-04-23T03:04:47;95560.00;;;11.66;100.00
13604;BME280;24578;48.264;11.436;2023-04-23T03:08:09;95557.00;;;11.61;100.00
13604;BME280;24578;48.264;11.436;2023-04-23T03:11:31;95561.63;;;11.57;100.00
13604;BME280;24578;48.264;11.436;2023-04-23T03:14:52;95565.97;;;11.47;100.00
13604;BME280;24578;48.264;11.436;2023-04-23T03:18:14;95564.19;;;11.48;100.00
13604;BME280;24578;48.264;11.436;2023-04-23T03:21:36;95562.81;;;11.43;100.00
13604;BME280;24578;48.264;11.436;2023-04-23T03:24:58;95565.97;;;11.47;100.00
13604;BME280;24578;48.264;11.436;2023-04-23T03:28:20;95562.41;;;11.48;100.00
13604;BME280;24578;48.264;11.436;2023-04-23T03:31:42;95567.34;;;11.51;100.00
13604;BME280;24578;48.264;11.436;2023-04-23T03:35:04;95557.78;;;11.42;100.00
13604;BME280;24578;48.264;11.436;2023-04-23T03:38:26;95566.38;;;11.42;100.00
13604;BME280;24578;48.264;11.436;2023-04-23T03:41:48;95575.53;;;11.47;100.00
13604;BME280;24578;48.264;11.436;2023-04-23T03:45:10;95573.03;;;11.45;100.00
13604;BME280;24578;48.264;11.436;2023-04-23T03:48:32;95579.47;;;11.41;100.00
13604;BME280;24578;48.264;11.436;2023-04-23T03:51:53;95582.78;;;11.22;100.00
13604;BME280;24578;48.264;11.436;2023-04-23T03:55:15;95585.88;;;11.06;100.00
13604;BME280;24578;48.264;11.436;2023-04-23T03:58:37;95591.16;;;10.94;100.00
13604;BME280;24578;48.264;11.436;2023-04-23T04:01:59;95600.25;;;10.89;100.00
13604;BME280;24578;48.264;11.436;2023-04-23T04:05:21;95598.94;;;10.73;100.00
13604;BME280;24578;48.264;11.436;2023-04-23T04:08:43;95598.09;;;10.73;100.00
13604;BME280;24578;48.264;11.436;2023-04-23T04:12:05;95603.03;;;10.76;100.00
13604;BME280;24578;48.264;11.436;2023-04-23T04:15:26;95598.81;;;10.75;100.00
13604;BME280;24578;48.264;11.436;2023-04-23T04:18:48;95608.97;;;10.66;100.00
13604;BME280;24578;48.264;11.436;2023-04-23T04:22:10;95608.66;;;10.60;100.00
13604;BME280;24578;48.264;11.436;2023-04-23T04:25:32;95611.13;;;10.61;100.00
13604;BME280;24578;48.264;11.436;2023-04-23T04:28:53;95610.56;;;10.58;100.00
13604;BME280;24578;48.264;11.436;2023-04-23T04:32:15;95614.66;;;10.60;100.00
13604;BME280;24578;48.264;11.436;2023-04-23T04:35:37;95613.72;;;10.61;100.00
13604;BME280;24578;48.264;11.436;2023-04-23T04:38:59;95625.50;;;10.54;100.00
13604;BME280;24578;48.264;11.436;2023-04-23T04:42:21;95617.16;;;10.50;100.00
13604;BME280;24578;48.264;11.436;2023-04-23T04:45:42;95617.50;;;10.57;100.00
13604;BME280;24578;48.264;11.436;2023-04-23T04:49:09;95623.84;;;10.53;100.00
13604;BME280;24578;48.264;11.436;2023-04-23T04:52:31;95624.31;;;10.58;100.00
13604;BME280;24578;48.264;11.436;2023-04-23T04:55:53;95633.25;;;10.54;100.00
13604;BME280;24578;48.264;11.436;2023-04-23T04:59:15;95629.78;;;10.65;100.00
13604;BME280;24578;48.264;11.436;2023-04-23T05:02:37;95627.59;;;10.60;100.00
13604;BME280;24578;48.264;11.436;2023-04-23T05:05:58;95639.59;;;10.61;100.00
13604;BME280;24578;48.264;11.436;2023-04-23T05:09:20;95644.94;;;10.70;100.00
13604;BME280;24578;48.264;11.436;2023-04-23T05:12:42;95635.28;;;10.72;100.00
13604;BME280;24578;48.264;11.436;2023-04-23T05:16:04;95646.72;;;10.69;100.00
13604;BME280;24578;48.264;11.436;2023-04-23T05:19:26;95652.84;;;10.68;100.00
13604;BME280;24578;48.264;11.436;2023-04-23T05:22:47;95651.97;;;10.58;100.00
13604;BME280;24578;48.264;11.436;2023-04-23T05:26:10;95646.00;;;10.46;100.00
13604;BME280;24578;48.264;11.436;2023-04-23T05:29:32;95650.81;;;10.50;100.00
13604;BME280;24578;48.264;11.436;2023-04-23T05:32:54;95659.75;;;10.46;100.00
13604;BME280;24578;48.264;11.436;2023-04-23T05:36:16;95666.66;;;10.57;100.00
13604;BME280;24578;48.264;11.436;2023-04-23T05:39:38;95667.28;;;10.49;100.00
13604;BME280;24578;48.264;11.436;2023-04-23T05:43:00;95675.66;;;10.42;100.00
13604;BME280;24578;48.264;11.436;2023-04-23T05:46:22;95666.47;;;10.38;100.00
13604;BME280;24578;48.264;11.436;2023-04-23T05:49:44;95678.13;;;10.32;100.00
13604;BME280;24578;48.264;11.436;2023-04-23T05:53:06;95679.91;;;10.31;100.00
13604;BME280;24578;48.264;11.436;2023-04-23T05:56:27;95686.03;;;10.30;100.00
13604;BME280;24578;48.264;11.436;2023-04-23T05:59:49;95677.88;;;10.35;100.00
13604;BME280;24578;48.264;11.436;2023-04-23T06:03:11;95666.97;;;10.31;100.00
13604;BME280;24578;48.264;11.436;2023-04-23T06:06:33;95670.94;;;10.35;100.00
13604;BME280;24578;48.264;11.436;2023-04-23T06:09:55;95674.84;;;10.30;100.00
13604;BME280;24578;48.264;11.436;2023-04-23T06:13:16;95672.72;;;10.35;100.00
13604;BME280;24578;48.264;11.436;2023-04-23T06:16:39;95675.16;;;10.36;100.00
13604;BME280;24578;48.264;11.436;2023-04-23T06:20:01;95667.41;;;10.48;100.00
13604;BME280;24578;48.264;11.436;2023-04-23T06:23:23;95684.44;;;10.50;100.00
13604;BME280;24578;48.264;11.436;2023-04-23T06:26:45;95676.13;;;10.47;100.00
13604;BME280;24578;48.264;11.436;2023-04-23T06:30:07;95669.72;;;10.51;100.00
13604;BME280;24578;48.264;11.436;2023-04-23T06:33:29;95672.41;;;10.61;100.00
13604;BME280;24578;48.264;11.436;2023-04-23T06:36:50;95679.53;;;10.69;100.00
13604;BME280;24578;48.264;11.436;2023-04-23T06:40:13;95674.13;;;10.72;100.00
13604;BME280;24578;48.264;11.436;2023-04-23T06:43:35;95689.47;;;10.63;100.00
13604;BME280;24578;48.264;11.436;2023-04-23T06:46:57;95683.50;;;10.51;100.00
13604;BME280;24578;48.264;11.436;2023-04-23T06:50:18;95678.00;;;10.45;100.00
13604;BME280;24578;48.264;11.436;2023-04-23T06:53:40;95674.97;;;10.40;100.00
13604;BME280;24578;48.264;11.436;2023-04-23T06:57:03;95671.44;;;10.41;100.00
13604;BME280;24578;48.264;11.436;2023-04-23T07:00:24;95674.72;;;10.43;100.00
13604;BME280;24578;48.264;11.436;2023-04-23T07:03:46;95665.72;;;10.58;100.00
13604;BME280;24578;48.264;11.436;2023-04-23T07:07:09;95666.81;;;10.77;100.00
13604;BME280;24578;48.264;11.436;2023-04-23T07:10:31;95677.28;;;10.96;100.00
13604;BME280;24578;48.264;11.436;2023-04-23T07:13:53;95665.00;;;10.99;100.00
13604;BME280;24578;48.264;11.436;2023-04-23T07:17:14;95666.59;;;11.11;100.00
13604;BME280;24578;48.264;11.436;2023-04-23T07:20:37;95673.16;;;10.94;100.00
13604;BME280;24578;48.264;11.436;2023-04-23T07:23:59;95661.09;;;10.83;100.00
13604;BME280;24578;48.264;11.436;2023-04-23T07:27:21;95661.31;;;10.91;100.00
13604;BME280;24578;48.264;11.436;2023-04-23T07:30:42;95667.44;;;10.90;100.00
13604;BME280;24578;48.264;11.436;2023-04-23T07:34:04;95668.81;;;10.94;100.00
13604;BME280;24578;48.264;11.436;2023-04-23T07:37:27;95663.00;;;11.02;100.00
13604;BME280;24578;48.264;11.436;2023-04-23T07:40:48;95667.09;;;11.05;100.00
13604;BME280;24578;48.264;11.436;2023-04-23T07:44:10;95667.72;;;11.18;100.00
13604;BME280;24578;48.264;11.436;2023-04-23T07:47:32;95659.34;;;11.05;100.00
13604;BME280;24578;48.264;11.436;2023-04-23T07:50:54;95666.41;;;11.03;100.00
13604;BME280;24578;48.264;11.436;2023-04-23T07:54:16;95671.22;;;10.86;100.00
13604;BME280;24578;48.264;11.436;2023-04-23T07:57:38;95670.03;;;10.90;100.00
13604;BME280;24578;48.264;11.436;2023-04-23T08:01:01;95663.19;;;11.10;100.00
13604;BME280;24578;48.264;11.436;2023-04-23T08:04:22;95672.75;;;10.89;100.00
13604;BME280;24578;48.264;11.436;2023-04-23T08:07:44;95681.56;;;10.86;100.00
13604;BME280;24578;48.264;11.436;2023-04-23T08:11:06;95673.06;;;10.95;100.00
13604;BME280;24578;48.264;11.436;2023-04-23T08:14:28;95670.53;;;11.05;100.00
13604;BME280;24578;48.264;11.436;2023-04-23T08:17:50;95666.41;;;11.03;100.00
13604;BME280;24578;48.264;11.436;2023-04-23T08:21:12;95653.91;;;11.08;100.00
13604;BME280;24578;48.264;11.436;2023-04-23T08:24:34;95655.41;;;11.10;100.00
13604;BME280;24578;48.264;11.436;2023-04-23T08:27:56;95645.50;;;11.16;100.00
13604;BME280;24578;48.264;11.436;2023-04-23T08:31:18;95632.97;;;11.21;100.00
13604;BME280;24578;48.264;11.436;2023-04-23T08:34:40;95642.34;;;11.43;100.00
13604;BME280;24578;48.264;11.436;2023-04-23T08:38:02;95632.91;;;11.83;100.00
13604;BME280;24578;48.264;11.436;2023-04-23T08:41:29;95635.69;;;12.30;100.00
13604;BME280;24578;48.264;11.436;2023-04-23T08:44:55;95632.03;;;12.53;100.00
13604;BME280;24578;48.264;11.436;2023-04-23T08:48:18;95639.66;;;12.74;100.00
13604;BME280;24578;48.264;11.436;2023-04-23T08:51:45;95644.41;;;12.98;100.00
13604;BME280;24578;48.264;11.436;2023-04-23T08:55:09;95643.13;;;13.02;100.00
13604;BME280;24578;48.264;11.436;2023-04-23T08:58:35;95643.78;;;13.24;100.00
13604;BME280;24578;48.264;11.436;2023-04-23T09:01:58;95639.44;;;13.62;100.00
13604;BME280;24578;48.264;11.436;2023-04-23T09:05:21;95628.81;;;13.74;100.00
13604;BME280;24578;48.264;11.436;2023-04-23T09:08:44;95621.38;;;14.07;100.00
13604;BME280;24578;48.264;11.436;2023-04-23T09:12:09;95613.13;;;14.92;100.00
13604;BME280;24578;48.264;11.436;2023-04-23T09:15:31;95616.28;;;16.41;100.00
13604;BME280;24578;48.264;11.436;2023-04-23T09:18:53;95606.31;;;17.59;100.00
13604;BME280;24578;48.264;11.436;2023-04-23T09:22:36;95599.91;;;18.01;100.00
13604;BME280;24578;48.264;11.436;2023-04-23T09:25:57;95593.06;;;19.00;100.00
13604;BME280;24578;48.264;11.436;2023-04-23T09:29:21;95598.00;;;18.80;100.00
13604;BME280;24578;48.264;11.436;2023-04-23T09:32:46;95598.75;;;18.89;100.00
13604;BME280;24578;48.264;11.436;2023-04-23T09:36:14;95594.00;;;18.69;100.00
13604;BME280;24578;48.264;11.436;2023-04-23T09:39:36;95597.56;;;18.06;100.00
13604;BME280;24578;48.264;11.436;2023-04-23T09:42:58;95590.25;;;17.93;100.00
13604;BME280;24578;48.264;11.436;2023-04-23T09:49:58;95581.31;;;18.58;100.00
13604;BME280;24578;48.264;11.436;2023-04-23T09:53:20;95579.06;;;18.69;100.00
13604;BME280;24578;48.264;11.436;2023-04-23T09:56:42;95582.19;;;18.88;100.00
13604;BME280;24578;48.264;11.436;2023-04-23T10:00:17;95568.53;;;18.93;100.00
13604;BME280;24578;48.264;11.436;2023-04-23T10:03:43;95573.44;;;19.26;100.00
13604;BME280;24578;48.264;11.436;2023-04-23T10:07:05;95567.69;;;18.77;100.00
13604;BME280;24578;48.264;11.436;2023-04-23T10:10:28;95562.34;;;18.70;100.00
13604;BME280;24578;48.264;11.436;2023-04-23T10:13:52;95568.31;;;18.79;100.00
13604;BME280;24578;48.264;11.436;2023-04-23T10:17:21;95552.88;;;18.84;100.00
13604;BME280;24578;48.264;11.436;2023-04-23T10:20:48;95563.81;;;18.88;100.00
13604;BME280;24578;48.264;11.436;2023-04-23T10:24:12;95551.59;;;18.80;100.00
13604;BME280;24578;48.264;11.436;2023-04-23T10:27:40;95552.00;;;18.54;100.00
13604;BME280;24578;48.264;11.436;2023-04-23T10:31:02;95556.09;;;18.56;100.00
13604;BME280;24578;48.264;11.436;2023-04-23T10:34:27;95550.88;;;18.56;100.00
13604;BME280;24578;48.264;11.436;2023-04-23T10:37:49;95554.19;;;18.50;100.00
13604;BME280;24578;48.264;11.436;2023-04-23T10:41:16;95546.94;;;18.91;100.00
13604;BME280;24578;48.264;11.436;2023-04-23T10:44:42;95546.31;;;19.04;100.00
13604;BME280;24578;48.264;11.436;2023-04-23T10:48:04;95543.50;;;18.75;100.00
13604;BME280;24578;48.264;11.436;2023-04-23T10:51:35;95548.38;;;18.40;100.00
13604;BME280;24578;48.264;11.436;2023-04-23T10:54:57;95541.03;;;18.74;100.00
13604;BME280;24578;48.264;11.436;2023-04-23T10:58:22;95533.81;;;19.36;100.00
13604;BME280;24578;48.264;11.436;2023-04-23T11:01:51;95520.38;;;20.19;100.00
13604;BME280;24578;48.264;11.436;2023-04-23T11:05:13;95505.81;;;21.43;88.63
13604;BME280;24578;48.264;11.436;2023-04-23T11:08:36;95510.06;;;21.38;78.43
13604;BME280;24578;48.264;11.436;2023-04-23T11:11:59;95493.59;;;21.84;70.08
13604;BME280;24578;48.264;11.436;2023-04-23T11:15:22;95485.94;;;22.03;64.68
13604;BME280;24578;48.264;11.436;2023-04-23T11:19:03;95477.53;;;23.00;61.70
13604;BME280;24578;48.264;11.436;2023-04-23T11:26:00;95479.94;;;24.31;51.69
13604;BME280;24578;48.264;11.436;2023-04-23T11:29:23;95470.47;;;24.86;50.82
13604;BME280;24578;48.264;11.436;2023-04-23T11:32:50;95463.13;;;25.44;47.71
13604;BME280;24578;48.264;11.436;2023-04-23T11:36:12;95452.38;;;25.69;46.47
13604;BME280;24578;48.264;11.436;2023-04-23T11:39:36;95451.63;;;25.50;44.86
13604;BME280;24578;48.264;11.436;2023-04-23T11:42:57;95448.41;;;26.33;46.38
13604;BME280;24578;48.264;11.436;2023-04-23T11:46:19;95439.03;;;27.02;39.63
13604;BME280;24578;48.264;11.436;2023-04-23T11:49:43;95426.97;;;27.11;41.10
13604;BME280;24578;48.264;11.436;2023-04-23T11:53:07;95419.38;;;27.15;38.08
13604;BME280;24578;48.264;11.436;2023-04-23T11:56:30;95400.84;;;26.91;37.05
13604;BME280;24578;48.264;11.436;2023-04-23T11:59:52;95408.69;;;25.91;39.61
13604;BME280;24578;48.264;11.436;2023-04-23T12:03:14;95397.03;;;25.49;40.51
13604;BME280;24578;48.264;11.436;2023-04-23T12:06:36;95398.53;;;25.45;37.65
13604;BME280;24578;48.264;11.436;2023-04-23T12:09:58;95407.81;;;25.66;38.15
13604;BME280;24578;48.264;11.436;2023-04-23T12:13:23;95392.63;;;25.13;39.98
13604;BME280;24578;48.264;11.436;2023-04-23T12:16:46;95387.91;;;25.88;40.51
13604;BME280;24578;48.264;11.436;2023-04-23T12:20:19;95382.34;;;25.35;40.43
13604;BME280;24578;48.264;11.436;2023-04-23T12:23:42;95388.28;;;25.00;38.95
13604;BME280;24578;48.264;11.436;2023-04-23T12:27:05;95388.47;;;23.41;43.30
13604;BME280;24578;48.264;11.436;2023-04-23T12:30:31;95379.31;;;22.98;45.27
13604;BME280;24578;48.264;11.436;2023-04-23T12:34:03;95378.31;;;23.70;45.34
13604;BME280;24578;48.264;11.436;2023-04-23T12:37:27;95368.88;;;23.81;44.35
13604;BME280;24578;48.264;11.436;2023-04-23T12:40:50;95364.53;;;24.18;42.94
13604;BME280;24578;48.264;11.436;2023-04-23T12:44:12;95360.97;;;24.50;40.93
13604;BME280;24578;48.264;11.436;2023-04-23T12:47:33;95356.97;;;24.41;43.78
13604;BME280;24578;48.264;11.436;2023-04-23T12:50:55;95351.69;;;24.41;42.60
13604;BME280;24578;48.264;11.436;2023-04-23T12:54:17;95358.28;;;24.13;42.33
13604;BME280;24578;48.264;11.436;2023-04-23T12:57:39;95355.63;;;23.30;44.30
13604;BME280;24578;48.264;11.436;2023-04-23T13:01:01;95345.34;;;23.79;42.48
13604;BME280;24578;48.264;11.436;2023-04-23T13:04:23;95336.25;;;24.56;41.50
13604;BME280;24578;48.264;11.436;2023-04-23T13:07:44;95331.56;;;24.58;43.30
13604;BME280;24578;48.264;11.436;2023-04-23T13:11:06;95320.72;;;23.79;44.16
13604;BME280;24578;48.264;11.436;2023-04-23T13:14:28;95321.03;;;22.61;47.71
13604;BME280;24578;48.264;11.436;2023-04-23T13:17:52;95318.75;;;21.85;48.24
13604;BME280;24578;48.264;11.436;2023-04-23T13:21:13;95312.25;;;21.41;53.38
13604;BME280;24578;48.264;11.436;2023-04-23T13:24:35;95304.34;;;21.34;56.62
13604;BME280;24578;48.264;11.436;2023-04-23T13:27:57;95295.81;;;21.05;52.07
13604;BME280;24578;48.264;11.436;2023-04-23T13:31:19;95286.66;;;20.94;53.39
13604;BME280;24578;48.264;11.436;2023-04-23T13:34:41;95278.22;;;21.33;53.40
13604;BME280;24578;48.264;11.436;2023-04-23T13:38:03;95268.31;;;21.48;54.50
13604;BME280;24578;48.264;11.436;2023-04-23T13:41:25;95262.25;;;22.54;51.20
13604;BME280;24578;48.264;11.436;2023-04-23T13:44:47;95245.25;;;24.95;43.41
13604;BME280;24578;48.264;11.436;2023-04-23T13:48:08;95230.63;;;26.87;37.23
13604;BME280;24578;48.264;11.436;2023-04-23T13:51:30;95226.72;;;28.15;33.79
13604;BME280;24578;48.264;11.436;2023-04-23T13:54:52;95214.53;;;28.41;32.76
13604;BME280;24578;48.264;11.436;2023-04-23T13:58:15;95220.19;;;28.05;32.59
13604;BME280;24578;48.264;11.436;2023-04-23T14:01:36;95214.53;;;28.19;32.81
13604;BME280;24578;48.264;11.436;2023-04-23T14:04:58;95221.91;;;27.55;33.86
13604;BME280;24578;48.264;11.436;2023-04-23T14:08:20;95208.75;;;28.49;32.81
13604;BME280;24578;48.264;11.436;2023-04-23T14:11:42;95208.50;;;29.33;31.17
13604;BME280;24578;48.264;11.436;2023-04-23T14:15:05;95202.25;;;29.50;30.32
13604;BME280;24578;48.264;11.436;2023-04-23T14:18:27;95211.75;;;27.52;33.01
13604;BME280;24578;48.264;11.436;2023-04-23T14:21:49;95205.03;;;25.99;35.49
13604;BME280;24578;48.264;11.436;2023-04-23T14:25:44;95206.03;;;26.10;36.54
13604;BME280;24578;48.264;11.436;2023-04-23T14:29:13;95202.59;;;26.22;35.69
13604;BME280;24578;48.264;11.436;2023-04-23T14:32:38;95206.84;;;25.04;39.15
13604;BME280;24578;48.264;11.436;2023-04-23T14:35:59;95216.09;;;23.78;40.47
13604;BME280;24578;48.264;11.436;2023-04-23T14:39:22;95209.69;;;22.91;42.42
13604;BME280;24578;48.264;11.436;2023-04-23T14:42:47;95197.41;;;22.32;44.88
13604;BME280;24578;48.264;11.436;2023-04-23T14:46:09;95193.53;;;22.35;46.13
13604;BME280;24578;48.264;11.436;2023-04-23T14:49:31;95185.56;;;22.10;47.32
13604;BME280;24578;48.264;11.436;2023-04-23T14:52:53;95176.09;;;21.88;49.26
13604;BME280;24578;48.264;11.436;2023-04-23T14:56:15;95179.78;;;21.74;48.61
13604;BME280;24578;48.264;11.436;2023-04-23T14:59:37;95173.47;;;21.88;47.97
13604;BME280;24578;48.264;11.436;2023-04-23T15:03:00;95178.63;;;21.56;48.34
13604;BME280;24578;48.264;11.436;2023-04-23T15:06:23;95173.75;;;20.73;49.60
13604;BME280;24578;48.264;11.436;2023-04-23T15:09:46;95177.88;;;20.20;51.69
13604;BME280;24578;48.264;11.436;2023-04-23T15:16:52;95163.97;;;19.84;53.70
13604;BME280;24578;48.264;11.436;2023-04-23T15:20:14;95163.69;;;20.07;53.80
13604;BME280;24578;48.264;11.436;2023-04-23T15:23:38;95166.25;;;19.94;52.39
13604;BME280;24578;48.264;11.436;2023-04-23T15:27:01;95166.31;;;19.72;52.93
13604;BME280;24578;48.264;11.436;2023-04-23T15:30:24;95168.66;;;19.54;54.25
13604;BME280;24578;48.264;11.436;2023-04-23T15:33:46;95158.06;;;19.40;54.57
13604;BME280;24578;48.264;11.436;2023-04-23T15:37:08;95153.31;;;19.22;55.65
13604;BME280;24578;48.264;11.436;2023-04-23T15:40:30;95156.19;;;18.99;56.70
13604;BME280;24578;48.264;11.436;2023-04-23T15:43:52;95154.47;;;18.91;56.96
13604;BME280;24578;48.264;11.436;2023-04-23T15:47:15;95144.72;;;18.85;57.35
13604;BME280;24578;48.264;11.436;2023-04-23T15:50:37;95146.94;;;18.81;59.12
13604;BME280;24578;48.264;11.436;2023-04-23T15:53:59;95145.34;;;18.59;60.66
13604;BME280;24578;48.264;11.436;2023-04-23T15:57:22;95139.88;;;18.38;62.03
13604;BME280;24578;48.264;11.436;2023-04-23T16:00:44;95149.19;;;18.41;63.59
13604;BME280;24578;48.264;11.436;2023-04-23T16:04:06;95150.19;;;18.40;63.19
13604;BME280;24578;48.264;11.436;2023-04-23T16:07:28;95148.03;;;18.07;66.43
13604;BME280;24578;48.264;11.436;2023-04-23T16:10:50;95147.59;;;18.25;65.26
13604;BME280;24578;48.264;11.436;2023-04-23T16:14:12;95135.63;;;18.16;64.08
13604;BME280;24578;48.264;11.436;2023-04-23T16:17:34;95135.94;;;18.06;64.17
13604;BME280;24578;48.264;11.436;2023-04-23T16:21:00;95133.69;;;18.03;64.80
13604;BME280;24578;48.264;11.436;2023-04-23T16:24:22;95130.81;;;17.98;64.18
13604;BME280;24578;48.264;11.436;2023-04-23T16:27:45;95123.84;;;18.05;65.61
13604;BME280;24578;48.264;11.436;2023-04-23T16:31:06;95127.72;;;17.94;68.51
13604;BME280;24578;48.264;11.436;2023-04-23T16:34:28;95124.03;;;17.88;70.06
13604;BME280;24578;48.264;11.436;2023-04-23T16:37:50;95118.34;;;17.70;70.62
13604;BME280;24578;48.264;11.436;2023-04-23T16:41:12;95114.66;;;17.79;69.04
13604;BME280;24578;48.264;11.436;2023-04-23T16:44:35;95110.97;;;17.58;68.61
13604;BME280;24578;48.264;11.436;2023-04-23T16:47:57;95107.75;;;17.41;71.76
13604;BME280;24578;48.264;11.436;2023-04-23T16:51:19;95104.41;;;17.02;77.65
13604;BME280;24578;48.264;11.436;2023-04-23T16:54:42;95103.31;;;16.97;81.58
13604;BME280;24578;48.264;11.436;2023-04-23T16:58:04;95098.72;;;17.14;81.73
13604;BME280;24578;48.264;11.436;2023-04-23T17:01:26;95087.09;;;17.01;82.96
13604;BME280;24578;48.264;11.436;2023-04-23T17:04:48;95083.22;;;16.97;84.58
13604;BME280;24578;48.264;11.436;2023-04-23T17:08:09;95082.75;;;16.94;87.60
13604;BME280;24578;48.264;11.436;2023-04-23T17:11:31;95076.78;;;16.85;89.32
13604;BME280;24578;48.264;11.436;2023-04-23T17:14:53;95067.38;;;16.75;90.51
13604;BME280;24578;48.264;11.436;2023-04-23T17:18:15;95063.31;;;16.58;94.69
13604;BME280;24578;48.264;11.436;2023-04-23T17:21:36;95066.69;;;16.43;96.22
13604;BME280;24578;48.264;11.436;2023-04-23T17:24:58;95069.78;;;16.24;99.63
13604;BME280;24578;48.264;11.436;2023-04-23T17:28:20;95066.00;;;16.26;100.00
13604;BME280;24578;48.264;11.436;2023-04-23T17:31:42;95073.84;;;16.03;100.00
13604;BME280;24578;48.264;11.436;2023-04-23T17:35:05;95074.38;;;15.98;100.00
13604;BME280;24578;48.264;11.436;2023-04-23T17:38:27;95073.78;;;15.80;100.00
13604;BME280;24578;48.264;11.436;2023-04-23T17:41:50;95069.25;;;15.74;100.00